Time;durP1;ratioP1;P1;durP2;ratioP2;P2;SDS_P1;SDS_P2;PMS_P1;PMS_P2;Temp;Humidity;BMP_temperature;BMP_pressure;BME280_temperature;BME280_humidity;BME280_pressure;Samples;Min_cycle;Max_cycle;Signal;HPM_P1;HPM_P2
2022/11/14 05:22:36;;;;;;;10.60;4.00;;;;;;;4.90;100.00;100081.75;5110025;27;20403;-68
2022/11/14 05:25:21;;;;;;;7.40;3.95;;;;;;;4.90;100.00;100068.53;5109541;28;20055;-69
2022/11/14 05:28:04;;;;;;;8.32;4.95;;;;;;;4.96;100.00;100067.97;5109778;28;20096;-68
2022/11/14 05:30:48;;;;;;;9.40;4.70;;;;;;;4.98;100.00;100075.75;5109151;28;20050;-68
2022/11/14 05:33:34;;;;;;;6.40;3.20;;;;;;;4.98;100.00;100062.56;5109746;28;20101;-69
2022/11/14 05:36:18;;;;;;;8.10;4.25;;;;;;;4.98;100.00;100044.06;5126103;28;20052;-68
2022/11/14 05:39:02;;;;;;;8.50;5.22;;;;;;;4.96;100.00;100041.59;5129928;27;20081;-67
2022/11/14 05:41:46;;;;;;;8.75;5.30;;;;;;;4.96;100.00;100035.47;5129492;27;20053;-67
2022/11/14 05:44:30;;;;;;;7.65;3.92;;;;;;;4.83;100.00;100022.56;5129806;27;20074;-68
2022/11/14 05:47:14;;;;;;;9.38;4.88;;;;;;;4.97;100.00;100031.84;5130004;27;20050;-68
2022/11/14 05:49:58;;;;;;;7.00;4.03;;;;;;;5.01;100.00;100030.56;5129540;28;20099;-67
2022/11/14 05:52:41;;;;;;;11.75;5.45;;;;;;;5.05;100.00;100038.06;5129525;28;20039;-67
2022/11/14 05:55:25;;;;;;;6.88;3.90;;;;;;;5.05;100.00;100032.78;5129534;28;20053;-68
2022/11/14 05:58:09;;;;;;;6.20;3.90;;;;;;;5.13;100.00;100038.19;5129396;28;20058;-68
2022/11/14 06:01:06;;;;;;;6.38;3.90;;;;;;;5.15;100.00;100028.34;5129115;28;20050;-68
2022/11/14 06:03:50;;;;;;;6.40;4.15;;;;;;;5.02;100.00;100022.53;5129378;28;20042;-68
2022/11/14 06:06:33;;;;;;;6.32;3.30;;;;;;;5.07;100.00;100030.84;5129417;28;20050;-69
2022/11/14 06:09:17;;;;;;;6.95;4.32;;;;;;;5.09;100.00;100025.44;5129213;28;20411;-67
2022/11/14 06:12:04;;;;;;;5.40;3.85;;;;;;;5.12;100.00;100035.69;5128911;28;20130;-67
2022/11/14 06:14:49;;;;;;;6.97;3.75;;;;;;;5.12;100.00;100033.06;5129096;28;20130;-67
2022/11/14 06:17:33;;;;;;;6.28;4.07;;;;;;;5.03;100.00;100036.56;5129298;28;20119;-68
2022/11/14 06:20:17;;;;;;;6.80;4.22;;;;;;;5.06;100.00;100017.78;5128577;28;20145;-67
2022/11/14 06:23:00;;;;;;;5.78;3.28;;;;;;;4.97;100.00;100010.72;5129187;28;20503;-67
2022/11/14 06:25:44;;;;;;;5.88;3.38;;;;;;;4.93;100.00;100007.53;5129090;28;20142;-66
2022/11/14 06:28:29;;;;;;;7.57;4.25;;;;;;;4.86;100.00;99998.53;5128970;28;20058;-67
2022/11/14 06:31:13;;;;;;;5.53;3.95;;;;;;;4.76;100.00;99998.56;5128729;28;20127;-67
2022/11/14 06:33:57;;;;;;;5.93;3.45;;;;;;;4.78;100.00;100004.53;5115523;28;20108;-68
2022/11/14 06:36:41;;;;;;;6.10;3.38;;;;;;;4.75;100.00;100001.31;5115022;28;20092;-68
2022/11/14 06:39:25;;;;;;;6.07;3.95;;;;;;;4.69;100.00;99999.25;5114939;28;20084;-68
2022/11/14 06:42:09;;;;;;;6.35;2.97;;;;;;;4.63;100.00;99998.84;5114991;28;20047;-67
2022/11/14 06:44:53;;;;;;;6.55;3.67;;;;;;;4.73;100.00;100001.47;5114870;28;20487;-68
2022/11/14 06:47:37;;;;;;;5.00;2.92;;;;;;;4.75;100.00;100006.59;5114911;28;20357;-68
2022/11/14 06:50:20;;;;;;;5.63;3.78;;;;;;;4.75;100.00;100004.78;5114481;28;20510;-68
2022/11/14 06:53:04;;;;;;;6.25;3.58;;;;;;;4.71;100.00;100008.69;5114805;28;20257;-69
2022/11/14 06:56:01;;;;;;;7.65;3.60;;;;;;;4.70;100.00;100006.22;5114781;28;20055;-69
2022/11/14 06:58:47;;;;;;;6.07;3.75;;;;;;;4.74;100.00;100018.13;5114713;28;20511;-68
2022/11/14 07:01:31;;;;;;;6.20;3.50;;;;;;;4.73;100.00;100011.19;5114373;28;20046;-67
2022/11/14 07:04:15;;;;;;;6.72;3.75;;;;;;;4.66;100.00;100024.13;5114614;28;20153;-67
2022/11/14 07:06:59;;;;;;;9.68;4.35;;;;;;;4.73;100.00;100032.31;5114358;28;20050;-67
2022/11/14 07:09:43;;;;;;;6.65;3.70;;;;;;;4.71;100.00;100026.34;5114503;28;20146;-68
2022/11/14 07:12:28;;;;;;;5.78;3.30;;;;;;;4.71;100.00;100021.06;5114245;28;20050;-68
2022/11/14 07:15:12;;;;;;;6.80;3.30;;;;;;;4.67;100.00;100030.22;5114618;28;20134;-68
2022/11/14 07:17:58;;;;;;;6.32;3.75;;;;;;;4.75;100.00;100036.44;5114587;28;20051;-68
2022/11/14 07:20:42;;;;;;;6.95;3.33;;;;;;;4.68;100.00;100023.97;5114070;28;20038;-67
2022/11/14 07:23:26;;;;;;;5.75;3.10;;;;;;;4.68;100.00;100023.97;5114198;28;20100;-67
2022/11/14 07:26:11;;;;;;;8.00;3.72;;;;;;;4.73;100.00;100019.09;5114162;28;20066;-72
2022/11/14 07:28:55;;;;;;;6.05;3.63;;;;;;;4.76;100.00;100030.22;5113837;28;20185;-72
2022/11/14 07:31:39;;;;;;;8.35;3.88;;;;;;;4.80;100.00;100036.03;5113407;28;20097;-73
2022/11/14 07:34:23;;;;;;;4.93;3.85;;;;;;;4.90;100.00;100042.16;5114004;28;20054;-72
2022/11/14 07:37:07;;;;;;;6.97;3.45;;;;;;;4.93;100.00;100041.84;5113550;28;20096;-72
2022/11/14 07:39:51;;;;;;;7.00;3.45;;;;;;;5.02;100.00;100042.78;5113595;28;20054;-72
2022/11/14 07:42:35;;;;;;;7.28;3.92;;;;;;;5.06;100.00;100045.00;5113808;28;20047;-72
2022/11/14 07:45:19;;;;;;;12.95;3.92;;;;;;;5.09;100.00;100033.34;5112429;28;20447;-72
2022/11/14 07:48:03;;;;;;;5.00;3.40;;;;;;;5.13;100.00;100030.25;5113574;28;20495;-71
2022/11/14 07:50:47;;;;;;;6.32;3.53;;;;;;;5.17;100.00;100039.56;5113157;28;20054;-72
2022/11/14 07:53:32;;;;;;;6.50;3.47;;;;;;;5.05;100.00;100045.16;5113515;28;20082;-72
2022/11/14 07:56:16;;;;;;;5.47;3.47;;;;;;;5.15;100.00;100028.34;5113365;28;20046;-72
2022/11/14 07:59:00;;;;;;;6.03;3.35;;;;;;;5.06;100.00;100013.34;5113588;28;20526;-72
2022/11/14 08:01:43;;;;;;;4.55;3.03;;;;;;;5.14;100.00;100039.84;5113295;28;20101;-71
2022/11/14 08:04:27;;;;;;;6.97;3.60;;;;;;;5.27;100.00;100034.25;5112530;28;20050;-71
2022/11/14 08:07:11;;;;;;;5.32;3.42;;;;;;;5.33;100.00;100038.13;5113267;28;20404;-72
2022/11/14 08:09:55;;;;;;;6.40;3.58;;;;;;;5.34;100.00;100037.16;5113379;28;20047;-72
2022/11/14 08:12:40;;;;;;;5.68;3.38;;;;;;;5.34;100.00;100029.22;5113226;28;20047;-72
2022/11/14 08:15:23;;;;;;;7.38;3.13;;;;;;;5.43;100.00;100031.84;5113038;28;20050;-71
2022/11/14 08:18:07;;;;;;;5.47;3.15;;;;;;;5.50;100.00;100040.00;5113060;28;20096;-72
2022/11/14 08:20:51;;;;;;;7.07;3.75;;;;;;;5.49;100.00;100035.72;5112453;28;20046;-73
2022/11/14 08:23:35;;;;;;;8.48;3.60;;;;;;;5.49;100.00;100042.81;5113093;28;20092;-72
2022/11/14 08:26:19;;;;;;;8.10;3.50;;;;;;;5.46;100.00;100043.91;5113450;28;20054;-73
2022/11/14 08:29:03;;;;;;;7.25;3.80;;;;;;;5.50;100.00;100047.13;5112972;28;20411;-72
2022/11/14 08:31:48;;;;;;;5.85;3.53;;;;;;;5.54;100.00;100056.41;5112701;28;20050;-72
2022/11/14 08:34:32;;;;;;;5.70;3.35;;;;;;;5.49;100.00;100059.50;5112709;28;20120;-72
2022/11/14 08:37:16;;;;;;;7.60;4.00;;;;;;;5.48;100.00;100059.63;5112585;28;20053;-72
2022/11/14 08:40:00;;;;;;;5.60;3.20;;;;;;;5.49;100.00;100063.94;5112763;28;20099;-72
2022/11/14 08:42:44;;;;;;;4.68;2.92;;;;;;;5.49;100.00;100070.06;5112644;28;20408;-72
2022/11/14 08:45:28;;;;;;;7.32;4.63;;;;;;;5.52;100.00;100074.22;5112835;28;20100;-72
2022/11/14 08:48:13;;;;;;;7.82;3.75;;;;;;;5.49;100.00;100066.59;5112551;28;20046;-71
2022/11/14 08:51:00;;;;;;;5.47;3.38;;;;;;;5.43;100.00;100049.50;5112353;28;20042;-72
2022/11/14 08:53:45;;;;;;;7.13;3.60;;;;;;;5.50;100.00;100066.44;5112711;28;20096;-72
2022/11/14 08:56:28;;;;;;;6.60;3.35;;;;;;;5.56;100.00;100057.94;5112096;28;20415;-72
2022/11/14 08:59:12;;;;;;;7.15;4.03;;;;;;;5.61;100.00;100062.78;5112661;28;20127;-71
2022/11/14 09:01:57;;;;;;;7.63;4.15;;;;;;;5.61;100.00;100055.69;5112310;28;20047;-72
2022/11/14 09:04:41;;;;;;;5.53;3.10;;;;;;;5.63;100.00;100060.81;5112295;28;20111;-72
2022/11/14 09:07:25;;;;;;;6.38;3.22;;;;;;;5.66;100.00;100056.06;5112291;28;20572;-71
2022/11/14 09:10:09;;;;;;;5.88;3.22;;;;;;;5.69;100.00;100060.25;5112072;28;20055;-72
2022/11/14 09:12:58;;;;;;;6.43;3.97;;;;;;;5.76;100.00;100055.19;5112146;28;20069;-72
2022/11/14 09:15:43;;;;;;;3.90;2.97;;;;;;;5.79;100.00;100050.44;5112207;28;20046;-72
2022/11/14 09:18:28;;;;;;;6.47;2.92;;;;;;;5.83;100.00;100051.00;5112217;28;20046;-72
2022/11/14 09:21:11;;;;;;;7.13;3.97;;;;;;;5.84;100.00;100057.94;5111841;28;20105;-72
2022/11/14 09:23:56;;;;;;;4.53;3.03;;;;;;;5.90;100.00;100050.25;5112098;28;20072;-72
2022/11/14 09:26:39;;;;;;;4.60;3.45;;;;;;;5.93;100.00;100051.78;5112022;28;20073;-72
2022/11/14 09:29:24;;;;;;;5.25;3.25;;;;;;;5.98;100.00;100054.81;5111962;28;20062;-72
2022/11/14 09:32:08;;;;;;;5.75;3.38;;;;;;;6.05;100.00;100055.06;5111723;28;20050;-72
2022/11/14 09:34:52;;;;;;;6.32;3.53;;;;;;;6.10;100.00;100045.69;5112033;28;20082;-72
2022/11/14 09:37:36;;;;;;;4.78;3.08;;;;;;;6.08;100.00;100034.44;5110927;28;20054;-73
2022/11/14 09:40:20;;;;;;;4.03;2.85;;;;;;;6.14;100.00;100043.59;5111932;28;20073;-72
2022/11/14 09:43:33;;;;;;;6.55;3.50;;;;;;;6.19;100.00;100049.25;5111946;28;20519;-73
2022/11/14 09:46:22;;;;;;;5.57;3.67;;;;;;;6.19;100.00;100036.88;5111681;28;20553;-72
2022/11/14 09:49:24;;;;;;;5.32;3.78;;;;;;;6.23;100.00;100043.53;5111863;28;20112;-72
2022/11/14 09:52:20;;;;;;;5.47;3.42;;;;;;;6.14;100.00;100033.03;5111435;28;20096;-72
2022/11/14 09:55:31;;;;;;;5.75;3.22;;;;;;;6.16;100.00;100029.25;5111975;28;20127;-71
2022/11/14 09:58:19;;;;;;;5.05;3.22;;;;;;;6.21;100.00;100040.22;5111775;28;20059;-72
2022/11/14 10:01:22;;;;;;;5.00;3.08;;;;;;;6.21;100.00;100040.22;5111469;28;20193;-71
2022/11/14 10:04:46;;;;;;;7.00;3.08;;;;;;;6.20;100.00;100043.84;5111936;28;20108;-71
2022/11/14 10:07:54;;;;;;;3.15;2.65;;;;;;;6.21;100.00;100040.22;5111475;28;20089;-71
2022/11/14 10:11:43;;;;;;;4.45;3.40;;;;;;;6.28;100.00;100040.44;5115215;28;20127;-71
2022/11/14 10:14:54;;;;;;;5.82;3.28;;;;;;;6.35;100.00;100035.38;5092629;28;20047;-71
2022/11/14 10:18:00;;;;;;;5.15;3.13;;;;;;;6.42;100.00;100031.97;5094152;28;20123;-72
2022/11/14 10:20:53;;;;;;;6.38;3.75;;;;;;;6.50;100.00;100039.13;5114838;28;20224;-72
2022/11/14 10:23:57;;;;;;;5.63;3.50;;;;;;;6.60;100.00;100033.78;5115303;28;20389;-72
2022/11/14 10:26:51;;;;;;;4.85;2.95;;;;;;;6.55;100.00;100018.34;5106335;28;20130;-71
2022/11/14 10:29:48;;;;;;;5.53;3.28;;;;;;;6.57;100.00;100018.19;5115166;28;20092;-71
2022/11/14 10:33:07;;;;;;;5.55;3.17;;;;;;;6.58;100.00;100027.78;5114929;28;20113;-72
2022/11/14 10:36:04;;;;;;;4.50;3.22;;;;;;;6.55;100.00;100021.00;5108749;28;20046;-72
2022/11/14 10:39:00;;;;;;;6.13;3.20;;;;;;;6.62;100.00;100011.47;5113927;28;20046;-71
2022/11/14 10:41:48;;;;;;;5.65;3.33;;;;;;;6.59;100.00;100010.94;5114945;28;20038;-72
2022/11/14 10:44:38;;;;;;;6.85;3.42;;;;;;;6.58;100.00;100014.56;5114817;28;20142;-72
2022/11/14 10:47:24;;;;;;;7.28;4.10;;;;;;;6.61;100.00;100014.25;5114708;28;20100;-72
2022/11/14 10:50:18;;;;;;;3.90;2.83;;;;;;;6.57;100.00;100005.78;5114896;28;20049;-71
2022/11/14 10:53:13;;;;;;;7.97;3.80;;;;;;;6.64;100.00;100009.47;5114659;28;20088;-71
2022/11/14 10:55:57;;;;;;;6.30;3.50;;;;;;;6.68;100.00;100004.72;5114685;28;20092;-71
2022/11/14 10:58:43;;;;;;;6.30;3.60;;;;;;;6.72;100.00;99996.34;5114602;28;20077;-71
2022/11/14 11:01:37;;;;;;;4.78;3.05;;;;;;;6.72;100.00;99996.34;5114206;28;20050;-72
2022/11/14 11:04:30;;;;;;;5.78;3.72;;;;;;;6.75;100.00;100005.78;5114434;28;20050;-71
2022/11/14 11:13:31;;;;;;;11.02;5.40;;;;;;;6.78;100.00;100001.00;5114528;28;20081;-71
2022/11/14 11:16:20;;;;;;;6.38;4.05;;;;;;;6.78;100.00;99987.78;5115158;28;20049;-71
2022/11/14 11:19:33;;;;;;;9.82;3.95;;;;;;;6.77;100.00;99991.38;5114217;28;20473;-71
2022/11/14 11:22:37;;;;;;;6.32;3.22;;;;;;;6.76;100.00;99992.38;5111828;28;20063;-72
2022/11/14 11:25:29;;;;;;;6.53;3.55;;;;;;;6.77;100.00;99988.72;5114072;28;20101;-71
2022/11/14 11:28:16;;;;;;;5.68;3.63;;;;;;;6.78;100.00;99987.78;5114238;28;20598;-71
2022/11/14 11:31:06;;;;;;;6.28;3.50;;;;;;;6.83;100.00;99986.47;5113782;28;20404;-71
2022/11/14 11:33:50;;;;;;;5.97;3.53;;;;;;;6.85;100.00;99981.84;5113925;28;20050;-71
2022/11/14 11:36:42;;;;;;;8.43;3.85;;;;;;;6.87;100.00;99983.34;5114145;28;20073;-72
2022/11/14 11:39:34;;;;;;;5.10;3.45;;;;;;;6.97;100.00;99980.59;5114108;28;20051;-72
2022/11/14 11:42:41;;;;;;;5.03;3.33;;;;;;;7.05;100.00;99972.72;5113556;28;20046;-71
2022/11/14 11:45:27;;;;;;;7.00;3.75;;;;;;;7.12;100.00;99970.25;5113609;28;20120;-72
2022/11/14 11:48:19;;;;;;;4.72;3.55;;;;;;;6.99;100.00;99965.38;5113603;28;20108;-72
2022/11/14 11:51:05;;;;;;;10.07;4.85;;;;;;;7.13;100.00;99964.81;5113156;28;20047;-71
2022/11/14 11:53:59;;;;;;;5.68;3.67;;;;;;;7.18;100.00;99967.81;5113513;28;20051;-72
2022/11/14 11:56:47;;;;;;;7.22;3.92;;;;;;;7.27;100.00;99963.38;5113305;28;20064;-72
2022/11/14 11:59:45;;;;;;;7.68;3.90;;;;;;;7.23;100.00;99962.84;5113278;28;20109;-72
2022/11/14 12:02:29;;;;;;;7.78;3.97;;;;;;;7.32;100.00;99961.91;5113400;28;20123;-72
2022/11/14 12:05:25;;;;;;;6.60;4.05;;;;;;;7.33;100.00;99963.56;5113416;28;20050;-71
2022/11/14 12:08:15;;;;;;;5.95;3.67;;;;;;;7.42;100.00;99977.66;5112370;28;20173;-73
2022/11/14 12:11:02;;;;;;;12.70;4.47;;;;;;;7.53;100.00;99963.31;5112965;28;20085;-71
2022/11/14 12:14:01;;;;;;;7.45;4.10;;;;;;;7.56;100.00;99969.13;5113105;28;20090;-73
2022/11/14 12:17:08;;;;;;;8.02;3.55;;;;;;;7.53;100.00;99960.66;5096589;28;20062;-73
2022/11/14 12:20:01;;;;;;;8.90;4.82;;;;;;;7.92;100.00;99960.09;5088981;28;20512;-72
2022/11/14 12:23:10;;;;;;;6.68;3.90;;;;;;;8.36;100.00;99960.69;5092779;28;20498;-73
2022/11/14 12:26:16;;;;;;;6.60;3.83;;;;;;;8.54;98.75;99963.16;5092561;28;20051;-73
2022/11/14 12:29:09;;;;;;;7.90;4.30;;;;;;;8.55;98.56;99959.53;5092314;28;20038;-73
2022/11/14 12:32:01;;;;;;;9.00;4.75;;;;;;;8.87;96.96;99954.16;5091446;28;20062;-73
2022/11/14 12:34:48;;;;;;;8.70;4.88;;;;;;;8.96;95.69;99958.44;5092274;28;20055;-72
2022/11/14 12:37:35;;;;;;;7.68;4.35;;;;;;;9.10;95.98;99948.94;5092131;28;20055;-73
2022/11/14 12:40:25;;;;;;;11.45;4.20;;;;;;;9.31;95.02;99964.31;5088704;28;20052;-72
2022/11/14 12:43:29;;;;;;;14.25;7.93;;;;;;;9.68;93.40;99946.88;5071764;28;20066;-73
2022/11/14 12:46:13;;;;;;;7.40;4.63;;;;;;;10.05;93.48;99952.31;5072058;28;20107;-72
2022/11/14 12:48:57;;;;;;;5.00;3.88;;;;;;;10.22;87.54;99950.34;5072226;28;20151;-73
2022/11/14 12:51:44;;;;;;;11.55;4.55;;;;;;;10.33;87.47;99951.81;5070545;28;20412;-72
2022/11/14 12:54:43;;;;;;;8.00;4.30;;;;;;;10.39;89.50;99934.28;5071676;28;20112;-72
2022/11/14 12:57:47;;;;;;;6.18;4.15;;;;;;;10.42;90.83;99944.56;5070874;28;20095;-73
2022/11/14 13:00:54;;;;;;;6.47;3.80;;;;;;;10.39;90.46;99940.44;5071316;28;20129;-73
2022/11/14 13:03:59;;;;;;;;;;;;;;;10.39;90.33;99943.09;5069487;28;20512;-72
2022/11/14 13:06:53;;;;;;;5.63;3.53;;;;;;;10.44;89.75;99946.06;5071932;28;19958;-72
2022/11/14 13:09:52;;;;;;;5.25;3.30;;;;;;;10.28;92.86;99948.84;5071842;28;20094;-73
2022/11/14 13:22:53;;;;;;;6.53;3.83;;;;;;;10.15;92.56;99944.06;5071411;28;20055;-72
2022/11/14 13:25:37;;;;;;;6.50;3.92;;;;;;;10.07;93.02;99941.47;5071179;28;20145;-72
2022/11/14 13:28:36;;;;;;;6.03;3.63;;;;;;;9.97;92.10;99936.38;5071428;28;20776;-72
2022/11/14 13:31:23;;;;;;;5.28;3.58;;;;;;;9.86;93.46;99944.78;5071330;28;20138;-72
2022/11/14 13:34:36;;;;;;;5.97;3.13;;;;;;;9.84;94.83;99930.81;5082834;28;20097;-73
2022/11/14 13:37:55;;;;;;;5.40;3.53;;;;;;;9.81;95.64;99922.38;5091604;28;20051;-72
2022/11/14 13:40:45;;;;;;;5.22;3.20;;;;;;;9.82;97.33;99926.69;5091146;28;20088;-73
2022/11/14 13:44:00;;;;;;;5.97;3.35;;;;;;;9.78;96.00;99920.91;5093785;28;20047;-72
2022/11/14 13:47:07;;;;;;;7.80;4.43;;;;;;;9.82;95.01;99916.88;5095534;28;20451;-72
2022/11/14 13:49:58;;;;;;;8.65;4.07;;;;;;;9.79;93.50;99922.56;5089437;28;20051;-73
2022/11/14 13:52:46;;;;;;;6.97;4.22;;;;;;;9.85;95.31;99921.84;5084979;28;20042;-72
2022/11/14 13:55:30;;;;;;;;;;;;;;;9.73;96.26;99913.44;5086309;28;20051;-72
2022/11/14 13:58:33;;;;;;;4.85;3.35;;;;;;;9.75;96.75;99907.94;5084939;28;19918;-72
2022/11/14 14:01:45;;;;;;;6.40;3.47;;;;;;;9.77;94.16;99908.59;5083653;28;20557;-73
2022/11/14 14:04:46;;;;;;;7.85;3.72;;;;;;;9.85;94.88;99911.22;5085528;28;20472;-73
2022/11/14 14:07:51;;;;;;;4.97;2.92;;;;;;;9.93;96.71;99912.97;5085533;28;20055;-73
2022/11/14 14:10:51;;;;;;;5.35;3.50;;;;;;;9.76;95.30;99913.06;5083233;28;20040;-71
2022/11/14 14:13:42;;;;;;;6.63;3.28;;;;;;;9.82;94.95;99908.06;5082922;28;20074;-72
2022/11/14 14:16:32;;;;;;;4.38;3.33;;;;;;;9.98;94.88;99911.44;5074600;28;20547;-73
2022/11/14 14:19:37;;;;;;;5.50;3.63;;;;;;;10.08;93.97;99908.53;5074625;28;20090;-73
2022/11/14 14:22:36;;;;;;;7.90;4.03;;;;;;;10.14;94.04;99909.66;5074348;28;20035;-74
2022/11/14 14:25:44;;;;;;;4.57;3.30;;;;;;;10.15;94.58;99906.81;5074369;28;20071;-72
2022/11/14 14:28:46;;;;;;;6.72;3.33;;;;;;;10.23;93.27;99913.94;5083455;28;20181;-73
2022/11/14 14:31:39;;;;;;;8.40;3.33;;;;;;;10.19;93.12;99915.28;5093146;28;20039;-73
2022/11/14 14:34:26;;;;;;;5.65;3.80;;;;;;;10.22;95.39;99914.91;5093779;28;20055;-73
2022/11/14 14:37:15;;;;;;;;;;;;;;;10.10;94.78;99913.69;5095011;28;20109;-72
2022/11/14 14:40:07;;;;;;;5.78;3.58;;;;;;;10.18;94.54;99918.97;5094699;28;19962;-71
2022/11/14 14:42:53;;;;;;;5.07;2.85;;;;;;;10.10;95.33;99925.16;5094583;28;20047;-73
2022/11/14 14:45:45;;;;;;;5.28;3.42;;;;;;;10.10;94.78;99919.00;5094422;28;20069;-72
2022/11/14 14:48:34;;;;;;;4.07;2.90;;;;;;;10.00;94.41;99925.41;5094277;28;20113;-72
2022/11/14 14:51:32;;;;;;;5.03;3.38;;;;;;;9.99;95.12;99923.75;5093985;28;20054;-72
2022/11/14 14:54:30;;;;;;;7.75;3.25;;;;;;;9.99;96.47;99913.09;5093729;28;20154;-72
2022/11/14 14:57:17;;;;;;;5.78;3.00;;;;;;;10.04;95.45;99918.72;5093221;28;20047;-71
2022/11/14 15:00:06;;;;;;;6.00;3.42;;;;;;;9.96;96.09;99926.75;5094240;28;20082;-73
2022/11/14 15:02:53;;;;;;;5.47;3.40;;;;;;;9.97;95.90;99925.72;5094045;28;20401;-73
2022/11/14 15:05:37;;;;;;;6.15;3.40;;;;;;;9.95;96.98;99919.78;5094084;28;20083;-73
2022/11/14 15:08:20;;;;;;;6.70;3.83;;;;;;;9.96;95.58;99923.25;5094205;28;20515;-72
2022/11/14 15:11:05;;;;;;;4.30;3.20;;;;;;;9.94;97.14;99915.47;5093934;28;20595;-71
2022/11/14 15:13:53;;;;;;;5.65;3.33;;;;;;;9.90;95.96;99908.81;5093878;28;20491;-71
2022/11/14 15:16:38;;;;;;;5.15;3.22;;;;;;;9.90;97.04;99911.50;5093914;28;20113;-72
2022/11/14 15:19:24;;;;;;;6.18;3.67;;;;;;;9.83;98.27;99907.88;5094122;28;20113;-72
2022/11/14 15:22:09;;;;;;;7.68;3.90;;;;;;;9.77;98.28;99908.59;5093616;28;20511;-73
2022/11/14 15:25:12;;;;;;;4.55;3.20;;;;;;;9.68;98.70;99907.00;5093758;28;20495;-74
2022/11/14 15:27:59;;;;;;;3.58;2.78;;;;;;;9.61;99.58;99901.53;5093792;28;20105;-72
2022/11/14 15:30:56;;;;;;;4.18;3.03;;;;;;;9.52;100.00;99902.59;5093393;28;20051;-71
2022/11/14 15:33:40;;;;;;;4.97;3.42;;;;;;;9.46;100.00;99903.31;5093636;28;20051;-72
2022/11/14 15:36:24;;;;;;;7.72;3.97;;;;;;;9.33;100.00;99909.19;5093532;28;20058;-71
2022/11/14 15:39:26;;;;;;;5.47;3.03;;;;;;;9.24;100.00;99910.19;5093710;28;20050;-72
2022/11/14 15:42:14;;;;;;;4.75;3.10;;;;;;;9.15;100.00;99900.63;5093024;28;20504;-72
2022/11/14 15:44:58;;;;;;;6.45;2.70;;;;;;;9.06;100.00;99917.56;5093301;28;20069;-71
2022/11/14 15:47:42;;;;;;;5.43;2.97;;;;;;;8.98;100.00;99911.28;5093285;28;20146;-72
2022/11/14 15:50:31;;;;;;;5.32;3.10;;;;;;;8.93;100.00;99903.03;5093030;28;20487;-71
2022/11/14 15:53:22;;;;;;;6.35;3.63;;;;;;;8.87;100.00;99911.66;5093457;28;20046;-71
2022/11/14 15:56:10;;;;;;;6.28;3.38;;;;;;;8.81;100.00;99911.53;5093011;28;20127;-71
2022/11/14 15:58:54;;;;;;;3.42;2.40;;;;;;;8.69;100.00;99913.69;5093129;28;20055;-72
2022/11/14 16:01:38;;;;;;;4.25;2.65;;;;;;;8.54;100.00;99910.06;5092692;28;20047;-72
2022/11/14 16:04:29;;;;;;;4.50;2.45;;;;;;;8.49;100.00;99910.56;5093208;28;20101;-71
2022/11/14 16:07:14;;;;;;;4.53;3.08;;;;;;;8.41;100.00;99919.38;5092565;28;20405;-71
2022/11/14 16:09:58;;;;;;;6.10;3.20;;;;;;;8.31;100.00;99916.03;5092933;28;20054;-71
2022/11/14 16:12:43;;;;;;;4.28;3.05;;;;;;;8.19;100.00;99912.03;5092578;28;20562;-72
2022/11/14 16:15:26;;;;;;;6.07;4.03;;;;;;;8.12;100.00;99908.41;5091752;28;20515;-72
2022/11/14 16:18:10;;;;;;;5.85;3.45;;;;;;;8.05;100.00;99920.66;5092947;28;20135;-71
2022/11/14 16:20:58;;;;;;;7.25;4.13;;;;;;;7.95;100.00;99920.81;5092466;28;20177;-72
2022/11/14 16:23:42;;;;;;;;;;;;;;;7.90;100.00;99923.16;5093080;28;20121;-72
2022/11/14 16:26:26;;;;;;;7.03;4.00;;;;;;;7.85;100.00;99930.75;5092727;28;19923;-71
2022/11/14 16:29:10;;;;;;;8.25;3.53;;;;;;;7.81;100.00;99932.06;5092865;28;20131;-71
2022/11/14 16:31:54;;;;;;;8.75;3.83;;;;;;;7.70;100.00;99930.56;5092317;28;20051;-72
2022/11/14 16:34:37;;;;;;;3.45;2.47;;;;;;;7.64;100.00;99936.53;5092590;28;20127;-72
2022/11/14 16:37:23;;;;;;;4.28;3.22;;;;;;;7.55;100.00;99940.13;5092356;28;20054;-72
2022/11/14 16:40:15;;;;;;;4.85;3.53;;;;;;;7.51;100.00;99944.09;5092472;28;20051;-71
2022/11/14 16:42:59;;;;;;;6.70;3.00;;;;;;;7.51;100.00;99944.94;5092498;28;20510;-72
2022/11/14 16:45:43;;;;;;;5.88;2.92;;;;;;;7.52;100.00;99946.59;5091026;28;20105;-72
2022/11/14 16:48:27;;;;;;;5.07;3.10;;;;;;;7.53;100.00;99956.19;5092167;28;20558;-72
2022/11/14 16:51:10;;;;;;;5.82;3.33;;;;;;;7.46;100.00;99957.81;5091818;28;20105;-72
2022/11/14 16:53:55;;;;;;;7.93;3.70;;;;;;;7.41;100.00;99965.41;5092259;28;20058;-72
2022/11/14 16:56:39;;;;;;;6.22;3.60;;;;;;;7.41;100.00;99970.72;5092106;28;20488;-71
2022/11/14 16:59:23;;;;;;;6.18;3.45;;;;;;;7.35;100.00;99974.81;5091980;28;20113;-72
2022/11/14 17:02:14;;;;;;;8.20;4.05;;;;;;;7.40;100.00;99976.19;5091760;28;20101;-72
2022/11/14 17:04:58;;;;;;;7.40;4.05;;;;;;;7.27;100.00;99974.78;5091903;28;20089;-72
2022/11/14 17:07:42;;;;;;;10.05;5.28;;;;;;;7.31;100.00;99970.03;5092110;28;20082;-71
2022/11/14 17:10:26;;;;;;;5.60;4.40;;;;;;;7.21;100.00;99978.06;5091868;28;20062;-71
2022/11/14 17:13:11;;;;;;;7.55;5.05;;;;;;;7.25;100.00;99975.97;5091736;28;20125;-70
2022/11/14 17:16:00;;;;;;;9.95;4.80;;;;;;;7.20;100.00;99986.19;5091578;28;20272;-72
2022/11/14 17:18:49;;;;;;;8.93;5.00;;;;;;;7.17;100.00;99986.50;5092013;28;20054;-73
2022/11/14 17:21:33;;;;;;;8.95;4.05;;;;;;;7.18;100.00;99990.81;5091399;28;20101;-72
2022/11/14 17:24:17;;;;;;;8.35;4.38;;;;;;;7.19;100.00;99988.00;5092044;28;20054;-66
2022/11/14 17:27:01;;;;;;;9.10;4.60;;;;;;;7.26;100.00;99977.63;5092047;28;20072;-66
2022/11/14 17:29:45;;;;;;;7.55;4.55;;;;;;;7.31;100.00;99972.69;5091967;28;20050;-68
2022/11/14 17:32:29;;;;;;;6.20;3.83;;;;;;;7.29;100.00;99967.50;5091811;28;20536;-67
2022/11/14 17:35:14;;;;;;;7.57;4.03;;;;;;;7.30;100.00;99968.34;5107903;22;20596;-69
2022/11/14 17:37:58;;;;;;;18.02;8.98;;;;;;;7.33;100.00;99965.38;5071604;28;20416;-69
2022/11/14 17:40:42;;;;;;;45.03;18.38;;;;;;;7.34;100.00;99962.56;5070333;28;20473;-69
2022/11/14 17:43:26;;;;;;;16.70;9.18;;;;;;;7.40;100.00;99958.47;5070640;28;20090;-69
2022/11/14 17:46:12;;;;;;;18.55;11.23;;;;;;;7.43;100.00;99959.94;5071312;28;20542;-69
2022/11/14 17:48:57;;;;;;;14.93;8.25;;;;;;;7.44;100.00;99959.00;5071589;28;20048;-70
2022/11/14 17:51:41;;;;;;;11.23;4.95;;;;;;;7.44;100.00;99959.00;5070925;28;20090;-69
2022/11/14 17:54:25;;;;;;;10.15;5.07;;;;;;;7.42;100.00;99950.34;5071367;28;20074;-70
2022/11/14 17:57:12;;;;;;;6.10;3.85;;;;;;;7.39;100.00;99955.97;5071490;28;20468;-68
2022/11/14 17:59:55;;;;;;;11.27;5.07;;;;;;;7.46;100.00;99959.66;5071316;28;20116;-69
2022/11/14 18:02:39;;;;;;;7.28;3.58;;;;;;;7.40;100.00;99960.28;5071133;28;20573;-69
2022/11/14 18:05:23;;;;;;;5.90;3.70;;;;;;;7.39;100.00;99962.09;5071338;28;20179;-69
2022/11/14 18:08:07;;;;;;;5.75;3.95;;;;;;;7.35;100.00;99960.75;5071349;28;20131;-69
2022/11/14 18:10:52;;;;;;;7.13;4.57;;;;;;;7.34;100.00;99959.91;5069992;28;20098;-68
2022/11/14 18:13:37;;;;;;;6.85;3.88;;;;;;;7.33;100.00;99952.97;5070304;28;20048;-69
2022/11/14 18:16:23;;;;;;;5.57;3.40;;;;;;;7.29;100.00;99945.50;5071246;28;20110;-68
2022/11/14 18:19:07;;;;;;;6.95;4.10;;;;;;;7.29;100.00;99954.25;5071174;28;20132;-69
2022/11/14 18:21:51;;;;;;;4.88;3.58;;;;;;;7.28;100.00;99943.84;5070561;28;20056;-69
2022/11/14 18:24:35;;;;;;;7.13;4.60;;;;;;;7.23;100.00;99948.78;5071031;28;20109;-69
2022/11/14 18:27:20;;;;;;;7.68;4.32;;;;;;;7.22;100.00;99945.28;5069893;28;20559;-68
2022/11/14 18:30:04;;;;;;;8.20;4.75;;;;;;;7.24;100.00;99950.47;5073815;28;20572;-68
2022/11/14 18:32:48;;;;;;;8.55;4.15;;;;;;;7.21;100.00;99948.94;5074444;28;20090;-69
2022/11/14 18:35:32;;;;;;;5.75;3.85;;;;;;;7.16;100.00;99945.94;5074255;28;20511;-68
2022/11/14 18:38:16;;;;;;;9.65;3.35;;;;;;;7.17;100.00;99944.09;5075092;28;20143;-69
2022/11/14 18:41:02;;;;;;;7.18;3.95;;;;;;;7.16;100.00;99955.69;5075192;28;20051;-68
2022/11/14 18:43:47;;;;;;;5.07;3.63;;;;;;;7.14;100.00;99953.22;5074551;28;20055;-68
2022/11/14 18:46:31;;;;;;;5.55;3.47;;;;;;;7.14;100.00;99957.69;5074839;28;20127;-68
2022/11/14 18:49:15;;;;;;;7.05;3.55;;;;;;;7.05;100.00;99943.56;5074372;28;20059;-68
2022/11/14 18:51:59;;;;;;;5.75;3.58;;;;;;;7.08;100.00;99951.19;5073871;28;20150;-70